Time;durP1;ratioP1;P1;durP2;ratioP2;P2;SDS_P1;SDS_P2;PMS_P1;PMS_P2;Temp;Humidity;BMP_temperature;BMP_pressure;BME280_temperature;BME280_humidity;BME280_pressure;Samples;Min_cycle;Max_cycle;Signal;HPM_P1;HPM_P2
2022/02/25 00:01:23;;;;;;;7.10;1.93;;;;;2.10;101324.00;;;;10440094;28;20206;-81
2022/02/25 00:06:25;;;;;;;8.77;1.90;;;;;2.20;101311.00;;;;10424269;28;20204;-81
2022/02/25 00:11:27;;;;;;;12.30;2.27;;;;;2.30;101325.00;;;;10408908;28;20211;-81
2022/02/25 00:16:29;;;;;;;5.33;1.80;;;;;2.40;101325.00;;;;10425268;28;20266;-81
2022/02/25 00:21:31;;;;;;;8.13;2.30;;;;;2.40;101326.00;;;;10428088;28;20238;-80
2022/02/25 00:26:33;;;;;;;10.07;1.87;;;;;2.40;101334.00;;;;10470069;28;20212;-81
2022/02/25 00:31:36;;;;;;;6.27;1.97;;;;;2.40;101344.00;;;;10463738;28;20201;-80
2022/02/25 00:36:38;;;;;;;6.57;2.10;;;;;2.40;101344.00;;;;10458653;28;20212;-81
2022/02/25 00:41:39;;;;;;;5.03;1.57;;;;;2.40;101344.00;;;;10455159;28;20738;-81
2022/02/25 00:46:41;;;;;;;7.30;1.77;;;;;2.30;101359.00;;;;10445416;28;20538;-80
2022/02/25 00:51:43;;;;;;;6.20;1.90;;;;;2.30;101362.00;;;;10430523;28;20187;-80
2022/02/25 00:56:45;;;;;;;7.77;1.80;;;;;2.20;101369.00;;;;10438582;28;20190;-80
2022/02/25 01:01:47;;;;;;;8.27;2.20;;;;;2.20;101375.00;;;;10446857;28;20199;-80
2022/02/25 01:06:50;;;;;;;5.20;1.97;;;;;2.20;101383.00;;;;10487531;28;20208;-80
2022/02/25 01:11:53;;;;;;;6.77;1.97;;;;;2.20;101385.00;;;;10458160;28;20683;-81
2022/02/25 01:16:55;;;;;;;10.30;2.17;;;;;2.20;101368.00;;;;10456171;28;20189;-80
2022/02/25 01:21:57;;;;;;;11.57;1.80;;;;;2.10;101375.00;;;;10475060;28;20205;-81
2022/02/25 01:26:59;;;;;;;8.47;1.97;;;;;2.10;101364.00;;;;10469555;28;20193;-81
2022/02/25 01:32:02;;;;;;;8.93;1.70;;;;;2.00;101380.00;;;;10444609;28;20194;-81
2022/02/25 12:09:14;;;;;;;11.20;2.63;;;;;9.00;101954.00;;;;10458304;28;20737;-81
2022/02/25 12:15:12;;;;;;;11.07;2.10;;;;;9.60;101964.00;;;;10440877;28;20202;-82
2022/02/25 12:20:17;;;;;;;12.50;3.17;;;;;10.40;101985.00;;;;10368741;28;20230;-81
2022/02/25 12:25:38;;;;;;;7.87;2.13;;;;;11.20;101991.00;;;;10438648;28;20213;-81
2022/02/25 12:30:45;;;;;;;11.37;2.40;;;;;10.60;101997.00;;;;10476789;28;20246;-82
2022/02/25 12:35:49;;;;;;;11.83;2.80;;;;;10.50;102006.00;;;;10456297;28;20198;-82
2022/02/25 12:41:16;;;;;;;12.13;2.17;;;;;9.60;101998.00;;;;10460360;28;20266;-82
2022/02/25 12:46:21;;;;;;;10.80;2.43;;;;;9.00;101999.00;;;;10430045;28;20190;-82
2022/02/25 12:51:24;;;;;;;11.50;2.37;;;;;10.30;101997.00;;;;10455687;28;20202;-79
2022/02/25 12:56:34;;;;;;;8.90;2.07;;;;;11.40;101988.00;;;;10446947;28;20242;-79
2022/02/25 13:01:52;;;;;;;8.73;2.50;;;;;12.00;101981.00;;;;10462546;28;20201;-80
2022/02/25 13:06:56;;;;;;;12.47;2.17;;;;;11.60;102005.00;;;;10498240;28;20197;-80
2022/02/25 13:12:01;;;;;;;9.33;2.00;;;;;10.50;102005.00;;;;10467210;28;20225;-81
2022/02/25 13:17:20;;;;;;;10.93;2.07;;;;;11.30;102009.00;;;;10459089;28;20189;-81
2022/02/25 13:22:22;;;;;;;7.53;1.53;;;;;10.60;102022.00;;;;10459454;28;20316;-81
2022/02/25 13:27:42;;;;;;;7.23;1.73;;;;;10.70;102019.00;;;;10472330;28;20243;-80
2022/02/25 13:32:54;;;;;;;8.70;3.07;;;;;12.00;102012.00;;;;10462863;28;20189;-81
2022/02/25 13:38:07;;;;;;;13.43;2.50;;;;;11.80;102032.00;;;;10453131;28;20202;-80
2022/02/25 13:43:19;;;;;;;13.40;3.17;;;;;10.10;102037.00;;;;10446679;28;20297;-80
2022/02/25 13:53:42;;;;;;;6.63;2.00;;;;;7.60;102077.00;;;;10492788;28;20197;-81
2022/02/25 13:58:56;;;;;;;8.67;1.93;;;;;6.10;102114.00;;;;10453188;28;20649;-80
2022/02/25 14:03:58;;;;;;;6.87;2.27;;;;;7.50;102106.00;;;;10471357;28;20204;-80
2022/02/25 14:09:00;;;;;;;8.20;2.43;;;;;8.80;102105.00;;;;10467695;28;20673;-79
2022/02/25 14:14:29;;;;;;;11.27;2.00;;;;;7.60;102115.00;;;;10445451;28;20190;-78
2022/02/25 14:19:31;;;;;;;8.20;2.23;;;;;10.30;102050.00;;;;10433536;28;20229;-78
2022/02/25 14:24:34;;;;;;;9.47;2.77;;;;;12.00;102050.00;;;;10460562;28;20212;-78
2022/02/25 14:29:38;;;;;;;11.37;2.80;;;;;12.90;102050.00;;;;10481676;28;20217;-79
2022/02/25 14:34:44;;;;;;;8.80;2.57;;;;;12.40;102109.00;;;;10490457;28;20293;-78
2022/02/25 14:39:46;;;;;;;12.50;2.67;;;;;12.30;102100.00;;;;10501561;28;20198;-78
2022/02/25 14:44:48;;;;;;;10.70;2.60;;;;;12.80;102076.00;;;;10503747;28;20213;-79
2022/02/25 14:49:51;;;;;;;11.50;3.37;;;;;13.40;102089.00;;;;10480994;28;20279;-78
2022/02/25 14:54:53;;;;;;;14.67;2.63;;;;;12.80;102090.00;;;;10467640;28;20197;-78
2022/02/25 14:59:54;;;;;;;9.53;2.17;;;;;14.40;102076.00;;;;10450216;28;20295;-80
2022/02/25 15:04:56;;;;;;;11.53;2.37;;;;;13.00;102135.00;;;;10514444;28;20205;-79
2022/02/25 15:09:58;;;;;;;12.20;2.00;;;;;14.10;102098.00;;;;10458195;28;20239;-79
2022/02/25 15:15:05;;;;;;;9.60;2.33;;;;;14.60;102067.00;;;;10472219;28;20201;-80
2022/02/25 15:20:12;;;;;;;6.00;1.80;;;;;14.40;102098.00;;;;10502961;28;20200;-79
2022/02/25 15:25:15;;;;;;;6.50;1.90;;;;;13.60;102146.00;;;;10483177;28;20765;-79
2022/02/25 15:30:17;;;;;;;5.67;1.60;;;;;14.40;102109.00;;;;10477853;28;20190;-80
2022/02/25 15:35:19;;;;;;;8.97;2.90;;;;;14.70;102126.00;;;;10473501;28;20200;-81
2022/02/25 15:40:21;;;;;;;5.80;1.67;;;;;10.20;102188.00;;;;10484315;28;20270;-80
2022/02/25 15:45:23;;;;;;;9.40;1.77;;;;;8.50;102200.00;;;;10462627;28;20201;-79
2022/02/25 15:50:25;;;;;;;8.77;2.20;;;;;7.90;102206.00;;;;10465960;28;20197;-79
2022/02/25 15:55:29;;;;;;;12.47;2.20;;;;;7.90;102221.00;;;;10506013;28;20205;-79
2022/02/25 16:00:32;;;;;;;6.37;2.20;;;;;7.70;102227.00;;;;10489713;28;20209;-80
2022/02/25 16:05:35;;;;;;;6.57;1.80;;;;;7.60;102249.00;;;;10471367;28;20201;-80
2022/02/25 16:10:37;;;;;;;10.07;2.40;;;;;7.50;102259.00;;;;10481189;28;20256;-79
2022/02/25 16:15:40;;;;;;;13.60;2.77;;;;;7.30;102265.00;;;;10512839;28;20185;-79
2022/02/25 16:20:42;;;;;;;10.97;1.83;;;;;7.10;102271.00;;;;10506271;28;20263;-80
2022/02/25 16:25:44;;;;;;;8.90;2.87;;;;;7.00;102279.00;;;;10463060;28;20283;-80
2022/02/25 16:30:46;;;;;;;16.37;2.23;;;;;6.90;102279.00;;;;10479031;28;20197;-81
2022/02/25 16:35:48;;;;;;;14.87;2.63;;;;;6.80;102293.00;;;;10431851;28;20189;-80
2022/02/25 16:40:50;;;;;;;8.93;2.20;;;;;6.70;102304.00;;;;10464216;28;20217;-80
2022/02/25 16:45:53;;;;;;;6.43;1.87;;;;;6.60;102306.00;;;;10464901;28;20255;-80
2022/02/25 16:50:54;;;;;;;11.50;2.03;;;;;6.60;102314.00;;;;10497255;28;20220;-81
2022/02/25 16:56:00;;;;;;;11.43;2.47;;;;;6.50;102330.00;;;;10481713;28;20190;-80
2022/02/25 17:01:05;;;;;;;8.50;2.27;;;;;6.40;102343.00;;;;10494814;28;20209;-80
2022/02/25 17:06:08;;;;;;;16.80;3.63;;;;;6.30;102345.00;;;;10465597;28;20206;-80
2022/02/25 17:11:12;;;;;;;10.60;2.23;;;;;6.10;102366.00;;;;10468351;28;20192;-80
2022/02/25 17:16:15;;;;;;;12.47;3.37;;;;;5.90;102361.00;;;;10453445;28;20210;-80
2022/02/25 17:21:17;;;;;;;8.27;2.30;;;;;5.80;102369.00;;;;10453188;28;20226;-80
2022/02/25 17:26:19;;;;;;;13.60;3.50;;;;;5.60;102390.00;;;;10417406;28;20202;-80
2022/02/25 17:31:21;;;;;;;16.03;3.30;;;;;5.50;102376.00;;;;10467078;28;20194;-81
2022/02/25 17:36:23;;;;;;;8.33;2.37;;;;;5.40;102398.00;;;;10498402;28;20197;-81
2022/02/25 17:41:25;;;;;;;9.80;2.80;;;;;5.30;102394.00;;;;10476802;28;20205;-81
2022/02/25 17:46:27;;;;;;;11.13;3.50;;;;;5.10;102404.00;;;;10453691;28;20193;-80
2022/02/25 17:51:31;;;;;;;14.63;3.97;;;;;5.00;102416.00;;;;10467030;28;20281;-80
2022/02/25 17:56:33;;;;;;;11.07;4.53;;;;;4.90;102415.00;;;;10439402;28;20217;-80
2022/02/25 18:01:36;;;;;;;14.63;3.40;;;;;4.80;102419.00;;;;10452436;28;20213;-81
2022/02/25 18:06:38;;;;;;;14.53;3.27;;;;;4.80;102430.00;;;;10463930;28;20189;-81
2022/02/25 18:11:41;;;;;;;12.30;3.23;;;;;4.60;102440.00;;;;10461343;28;20251;-80
2022/02/25 18:16:42;;;;;;;16.23;3.20;;;;;4.60;102445.00;;;;10478089;28;20198;-80
2022/02/25 18:21:45;;;;;;;13.70;2.80;;;;;4.50;102446.00;;;;10452327;28;20213;-81
2022/02/25 18:26:47;;;;;;;11.77;3.47;;;;;4.30;102454.00;;;;10467595;28;20292;-80
2022/02/25 18:31:49;;;;;;;14.40;3.47;;;;;4.30;102450.00;;;;10447675;28;20195;-80
2022/02/25 18:36:52;;;;;;;9.37;3.00;;;;;4.30;102462.00;;;;10475176;28;20213;-80
2022/02/25 18:41:54;;;;;;;16.10;3.10;;;;;4.30;102463.00;;;;10484044;28;20292;-80
2022/02/25 18:46:56;;;;;;;11.03;3.30;;;;;4.20;102465.00;;;;10473313;28;20213;-80
2022/02/25 18:51:58;;;;;;;14.90;4.03;;;;;4.20;102487.00;;;;10493783;28;20224;-79
2022/02/25 18:57:02;;;;;;;16.07;3.23;;;;;4.20;102477.00;;;;10479054;28;20192;-79
2022/02/25 19:02:10;;;;;;;11.13;3.30;;;;;4.10;102490.00;;;;10466649;28;20197;-80
2022/02/25 19:07:12;;;;;;;11.10;3.33;;;;;3.90;102496.00;;;;10488357;28;20242;-80
2022/02/25 19:12:14;;;;;;;16.37;4.10;;;;;3.70;102498.00;;;;10482280;28;20185;-80
2022/02/25 19:17:16;;;;;;;17.60;4.60;;;;;3.50;102507.00;;;;10469760;28;20204;-80
2022/02/25 19:22:18;;;;;;;20.37;4.90;;;;;3.40;102503.00;;;;10494951;28;20303;-80
2022/02/25 19:27:20;;;;;;;15.63;4.60;;;;;3.50;102507.00;;;;10470209;28;20773;-80
2022/02/25 19:32:23;;;;;;;19.33;5.27;;;;;3.60;102509.00;;;;10483737;28;20188;-80
2022/02/25 19:37:25;;;;;;;14.90;3.93;;;;;3.70;102520.00;;;;10498691;28;20267;-80
2022/02/25 19:42:27;;;;;;;14.03;4.57;;;;;3.50;102529.00;;;;10489263;28;20212;-81
2022/02/25 19:47:30;;;;;;;14.23;5.20;;;;;3.20;102535.00;;;;10441382;28;20288;-80
2022/02/25 19:52:33;;;;;;;21.30;5.47;;;;;3.10;102547.00;;;;10491407;28;20189;-80
2022/02/25 19:57:36;;;;;;;14.57;5.03;;;;;3.00;102551.00;;;;10464200;28;20754;-80
2022/02/25 20:02:39;;;;;;;18.17;6.27;;;;;2.80;102554.00;;;;10510766;28;20203;-79
2022/02/25 20:07:41;;;;;;;17.53;4.87;;;;;2.70;102562.00;;;;10473065;28;20196;-80
2022/02/25 20:12:44;;;;;;;20.70;5.93;;;;;2.60;102567.00;;;;10472712;28;20193;-80
2022/02/25 20:17:46;;;;;;;20.20;6.13;;;;;2.40;102576.00;;;;10463287;28;20202;-80
2022/02/25 20:22:48;;;;;;;18.33;5.63;;;;;2.40;102577.00;;;;10478096;28;20221;-80
2022/02/25 20:27:50;;;;;;;23.90;6.00;;;;;2.30;102569.00;;;;10479783;28;20216;-79
2022/02/25 20:32:53;;;;;;;14.80;6.53;;;;;2.40;102578.00;;;;10463960;28;20240;-80
2022/02/25 20:37:55;;;;;;;18.13;6.37;;;;;2.40;102586.00;;;;10521845;28;20687;-80
2022/02/25 20:42:57;;;;;;;24.97;8.73;;;;;2.30;102590.00;;;;10524581;28;20213;-80
2022/02/25 20:47:59;;;;;;;24.83;7.40;;;;;2.20;102591.00;;;;10481148;28;20284;-80
2022/02/25 20:53:02;;;;;;;16.93;6.67;;;;;2.20;102598.00;;;;10451025;28;20262;-80
2022/02/25 20:58:11;;;;;;;22.90;6.17;;;;;2.30;102613.00;;;;10477866;28;20193;-81
2022/02/25 21:03:13;;;;;;;20.93;6.80;;;;;2.30;102608.00;;;;10508671;28;20209;-80
2022/02/25 21:08:17;;;;;;;20.60;7.07;;;;;2.30;102616.00;;;;10501910;28;20195;-80
2022/02/25 21:13:20;;;;;;;22.07;7.43;;;;;2.30;102613.00;;;;10534759;28;20189;-80
2022/02/25 21:18:23;;;;;;;19.17;6.00;;;;;2.20;102625.00;;;;10474406;28;20196;-79
2022/02/25 21:23:25;;;;;;;18.70;6.50;;;;;2.20;102623.00;;;;10495135;28;20343;-80
2022/02/25 21:28:27;;;;;;;24.50;6.90;;;;;2.10;102630.00;;;;10476284;28;20714;-80
2022/02/25 21:33:29;;;;;;;21.63;6.87;;;;;2.00;102640.00;;;;10466068;28;20185;-80
2022/02/25 21:38:31;;;;;;;17.40;6.40;;;;;1.90;102635.00;;;;10484970;28;20623;-79
2022/02/25 21:43:33;;;;;;;25.37;6.83;;;;;1.80;102643.00;;;;10508317;28;20251;-80
2022/02/25 21:48:37;;;;;;;21.83;8.10;;;;;1.70;102649.00;;;;10485015;28;20197;-79
2022/02/25 21:53:39;;;;;;;18.10;7.20;;;;;1.60;102651.00;;;;10465126;28;20193;-80
2022/02/25 21:58:41;;;;;;;21.70;6.37;;;;;1.50;102651.00;;;;10478860;28;20244;-80
2022/02/25 22:03:43;;;;;;;28.13;7.53;;;;;1.40;102668.00;;;;10476965;28;20679;-80
2022/02/25 22:08:46;;;;;;;29.10;8.07;;;;;1.30;102669.00;;;;10475781;28;20197;-80
2022/02/25 22:13:51;;;;;;;21.30;6.70;;;;;1.30;102676.00;;;;10460323;28;20189;-80
2022/02/25 22:18:54;;;;;;;20.90;7.87;;;;;1.20;102679.00;;;;10481568;28;20193;-80
2022/02/25 22:23:57;;;;;;;27.40;8.47;;;;;1.20;102692.00;;;;10443351;28;20221;-80
2022/02/25 22:29:01;;;;;;;21.03;6.57;;;;;1.20;102684.00;;;;10474365;28;20288;-80
2022/02/25 22:34:03;;;;;;;29.47;8.80;;;;;1.10;102685.00;;;;10467504;28;20188;-80
2022/02/25 22:39:05;;;;;;;24.10;9.70;;;;;1.10;102687.00;;;;10506417;28;20232;-80
2022/02/25 22:44:07;;;;;;;31.40;8.90;;;;;1.10;102689.00;;;;10483030;28;20217;-80
2022/02/25 22:49:10;;;;;;;39.43;11.37;;;;;1.10;102694.00;;;;10474046;28;20686;-80
2022/02/25 22:59:34;;;;;;;51.73;10.63;;;;;1.00;102706.00;;;;10462522;28;20661;-80
2022/02/25 23:09:58;;;;;;;29.17;7.00;;;;;0.90;102717.00;;;;10506240;28;20798;-79
2022/02/25 23:15:01;;;;;;;24.00;6.90;;;;;0.90;102721.00;;;;10496902;28;20640;-80
2022/02/25 23:20:03;;;;;;;23.93;7.73;;;;;0.90;102728.00;;;;10472855;28;20193;-79
2022/02/25 23:25:07;;;;;;;25.77;8.20;;;;;0.80;102720.00;;;;10487662;28;22028;-79
2022/02/25 23:30:10;;;;;;;25.13;9.37;;;;;0.80;102726.00;;;;10496031;28;20197;-79
2022/02/25 23:35:12;;;;;;;22.17;9.63;;;;;0.80;102724.00;;;;10478797;28;20181;-79
2022/02/25 23:40:14;;;;;;;26.90;10.20;;;;;0.90;102735.00;;;;10464858;28;20205;-80
2022/02/25 23:45:17;;;;;;;31.70;10.40;;;;;0.90;102739.00;;;;10485522;28;20208;-78
2022/02/25 23:50:19;;;;;;;24.33;11.00;;;;;0.90;102741.00;;;;10491559;28;20197;-77
2022/02/25 23:55:21;;;;;;;32.07;11.30;;;;;0.90;102745.00;;;;10489442;28;20193;-79
